WetterOnline ( https://www.wetteronline.de )

Wetter aktuell Hasselfelde

Aktuelles Wetter: Wernigerode (240m)

6-stündlich | Neueste Meldungen
Ortszeit Temperatur Wetter
Do, 04.03. 13:00 2.6° C Nebel
Do, 04.03. 7:00 2.2° C Nebel
Do, 04.03. 1:00 9.7° C bewölkt
Mi, 03.03. 19:00 11.6° C leicht bewölkt
Mi, 03.03. 13:00 14.5° C bedeckt
Mi, 03.03. 7:00 1.2° C wolkenlos
Mi, 03.03. 1:00 -0.9° C wolkenlos
Di, 02.03. 19:00 4.6° C wolkenlos
Ortszeit Temperatur Wetter
Do, 04.03. 14:30 2.3° C Nebel
Do, 04.03. 14:20 2.3° C Nebel
Do, 04.03. 14:10 2.5° C bedeckt
Do, 04.03. 14:00 2.5° C bedeckt
Do, 04.03. 13:50 2.5° C bedeckt
Do, 04.03. 13:40 2.6° C Nebel
Do, 04.03. 13:30 2.6° C Nebel
Do, 04.03. 13:00 2.6° C Nebel
Ortszeit Relative Feuchte Sichtweite
Do, 04.03. 13:00 99% 0.3 km
Do, 04.03. 7:00 99% <100 m
Do, 04.03. 1:00 68% 10 km
Mi, 03.03. 19:00 52% 30 km
Mi, 03.03. 13:00 42% 35 km
Mi, 03.03. 7:00 81% 50 km
Mi, 03.03. 1:00 92% 35 km
Di, 02.03. 19:00 93% 8 km
Ortszeit Relative Feuchte Sichtweite
Do, 04.03. 14:30 99% 0.9 km
Do, 04.03. 14:20 99% -
Do, 04.03. 14:10 99% -
Do, 04.03. 14:00 99% 1.0 km
Do, 04.03. 13:50 99% -
Do, 04.03. 13:40 99% -
Do, 04.03. 13:30 99% 0.4 km
Do, 04.03. 13:00 99% 0.3 km
Ortszeit Niederschlagsmenge Niederschlagsart
Do, 04.03. 13:00 0.0 l/m2 in 6 Std. -
Do, 04.03. 7:00 0.0 l/m2 in 12 Std. -
Do, 04.03. 1:00 0.0 l/m2 in 6 Std. -
Mi, 03.03. 19:00 0.0 l/m2 in 12 Std. -
Mi, 03.03. 13:00 0.0 l/m2 in 6 Std. -
Mi, 03.03. 7:00 0.0 l/m2 in 12 Std. -
Mi, 03.03. 1:00 0.0 l/m2 in 6 Std. -
Di, 02.03. 19:00 0.0 l/m2 in 12 Std. -
Ortszeit Niederschlagsmenge Niederschlagsart
Do, 04.03. 14:30 0.0 l/m2 in 1 Std. -
Do, 04.03. 14:20 keine Meldung -
Do, 04.03. 14:10 keine Meldung -
Do, 04.03. 14:00 0.0 l/m2 in 1 Std. -
Do, 04.03. 13:50 keine Meldung -
Do, 04.03. 13:40 keine Meldung -
Do, 04.03. 13:30 0.0 l/m2 in 1 Std. -
Do, 04.03. 13:00 0.0 l/m2 in 1 Std. -
Ortszeit Stärke Spitze Richtung
km/h Bft. km/h Grad Sektor
Do, 04.03. 13:00 13 3 20 340° N
Do, 04.03. 7:00 4 1 36 340° N
Do, 04.03. 1:00 18 3 36 280° W
Mi, 03.03. 19:00 7 2 32 280° W
Mi, 03.03. 13:00 7 2 14 50° NO
Mi, 03.03. 7:00 7 2 18 160° S
Mi, 03.03. 1:00 6 1 13 170° S
Di, 02.03. 19:00 2 1 13 50° NO
Ortszeit Stärke Spitze Richtung
km/h Bft. km/h Grad Sektor
Do, 04.03. 14:30 11 2 22 340° N
Do, 04.03. 14:20 11 2 - 340° N
Do, 04.03. 14:10 13 3 - 340° N
Do, 04.03. 14:00 15 3 26 340° N
Do, 04.03. 13:50 15 3 - 340° N
Do, 04.03. 13:40 14 3 - 340° N
Do, 04.03. 13:30 11 2 22 360° N
Do, 04.03. 13:00 13 3 20 340° N
Ortszeit Untergrenze Bedeckung Gattung
total tief tief mittel hoch
Do, 04.03. 13:00 <30 m 8/8 0/8 - - -
Do, 04.03. 7:00 <30 m 8/8 0/8 - - -
Do, 04.03. 1:00 3600 m 7/8 6/8 - - -
Mi, 03.03. 19:00 4500 m 4/8 2/8 - - -
Mi, 03.03. 13:00 5700 m 8/8 8/8 - - -
Mi, 03.03. 7:00 - 0/8 0/8 - - -
Mi, 03.03. 1:00 - 0/8 0/8 - - -
Di, 02.03. 19:00 210 m 0/8 0/8 - - -
Ortszeit Bedeckungsgrad in Achtel und Wolkenuntergrenze
Do, 04.03. 14:30 8(30m)
Do, 04.03. 14:20 8(30m)
Do, 04.03. 14:10 8(30m)
Do, 04.03. 14:00 8(30m)
Do, 04.03. 13:50 8(30m)
Do, 04.03. 13:40 8(30m)
Do, 04.03. 13:30 8(<30m)
Do, 04.03. 13:00 8(<30m)
Ortszeit Luftdruck NN (hPa) Tendenz (hPa in 3 Std.)
Do, 04.03. 13:00 1019 - 0,3
Do, 04.03. 7:00 1020 - 0,5
Do, 04.03. 1:00 1022 - 1,4
Mi, 03.03. 19:00 1024 - 0,8
Mi, 03.03. 13:00 1027 - 1,2
Mi, 03.03. 7:00 1030 - 0,6
Mi, 03.03. 1:00 1032 - 0,5
Di, 02.03. 19:00 1033 - 0,6
Ortszeit Luftdruck NN (hPa) Tendenz (hPa in 3 Std.)
Do, 04.03. 14:30 1019 - 0,7
Do, 04.03. 14:20 1019 keine Meldung
Do, 04.03. 14:10 1019 keine Meldung
Do, 04.03. 14:00 1019 - 0,6
Do, 04.03. 13:50 1019 keine Meldung
Do, 04.03. 13:40 1019 keine Meldung
Do, 04.03. 13:30 1019 - 0,7
Do, 04.03. 13:00 1019 - 0,3
Ortszeit Schneehöhe (cm)
Do, 04.03. 13:00 0
Do, 04.03. 7:00 0
Do, 04.03. 1:00 0
Mi, 03.03. 19:00 0
Mi, 03.03. 13:00 0
Mi, 03.03. 7:00 0
Mi, 03.03. 1:00 0
Di, 02.03. 19:00 0
Ortszeit Schneehöhe (cm)
Do, 04.03. 14:30 0
Do, 04.03. 14:20 0
Do, 04.03. 14:10 0
Do, 04.03. 14:00 0
Do, 04.03. 13:50 0
Do, 04.03. 13:40 0
Do, 04.03. 13:30 0
Do, 04.03. 13:00 0
Link zu dieser Seite / Seite empfehlen

Das Wetter in ...